Time;durP1;ratioP1;P1;durP2;ratioP2;P2;SDS_P1;SDS_P2;PMS_P1;PMS_P2;Temp;Humidity;BMP_temperature;BMP_pressure;BME280_temperature;BME280_humidity;BME280_pressure;Samples;Min_cycle;Max_cycle;Signal;HPM_P1;HPM_P2
2021/12/09 00:01:33;;;;;;;;;;;9.70;59.60;;;;;;6219976;23;19912;-90
2021/12/09 00:04:02;;;;;;;;;;;9.80;59.60;;;;;;6192359;23;19912;-89
2021/12/09 00:06:29;;;;;;;;;;;9.80;59.60;;;;;;6192772;23;19919;-90
2021/12/09 00:08:57;;;;;;;;;;;9.80;59.60;;;;;;6219472;23;19923;-91
2021/12/09 00:11:22;;;;;;;;;;;9.80;59.60;;;;;;6192981;23;19927;-91
2021/12/09 00:13:48;;;;;;;;;;;9.80;59.50;;;;;;6192835;23;19907;-91
2021/12/09 00:16:13;;;;;;;;;;;9.80;59.50;;;;;;6193261;23;20360;-90
2021/12/09 00:18:39;;;;;;;;;;;9.80;59.50;;;;;;6219102;23;19926;-89
2021/12/09 00:21:04;;;;;;;;;;;9.80;59.60;;;;;;6192769;23;19969;-90
2021/12/09 00:23:30;;;;;;;;;;;9.80;59.60;;;;;;6192591;23;20301;-90
2021/12/09 00:25:56;;;;;;;;;;;9.80;59.50;;;;;;6219734;23;20325;-89
2021/12/09 00:28:21;;;;;;;;;;;9.80;59.50;;;;;;6193204;23;19951;-91
2021/12/09 00:30:46;;;;;;;;;;;9.90;59.50;;;;;;6218989;23;19932;-91
2021/12/09 00:33:15;;;;;;;;;;;9.90;59.50;;;;;;6217406;23;19952;-91
2021/12/09 00:35:45;;;;;;;;;;;9.90;59.30;;;;;;6191629;23;19908;-91
2021/12/09 00:38:18;;;;;;;;;;;9.90;59.30;;;;;;6192200;23;20580;-90
2021/12/09 00:40:44;;;;;;;;;;;9.90;59.30;;;;;;6192155;23;19910;-91
2021/12/09 00:43:10;;;;;;;;;;;9.90;59.40;;;;;;6218091;23;19916;-90
2021/12/09 00:45:35;;;;;;;;;;;9.90;59.40;;;;;;6192568;23;19942;-91
2021/12/09 00:48:01;;;;;;;;;;;9.90;59.40;;;;;;6219113;23;19924;-91
2021/12/09 00:50:26;;;;;;;;;;;9.90;59.40;;;;;;6192075;23;19904;-91
2021/12/09 00:52:52;;;;;;;;;;;9.90;59.40;;;;;;6219148;23;20240;-91
2021/12/09 00:55:17;;;;;;;;;;;9.90;59.40;;;;;;6191458;23;19919;-91
2021/12/09 00:57:43;;;;;;;;;;;9.90;59.40;;;;;;6193422;23;20383;-91
2021/12/09 01:00:10;;;;;;;;;;;9.90;59.30;;;;;;6222493;23;20321;-91
2021/12/09 01:02:37;;;;;;;;;;;9.80;59.30;;;;;;6220951;23;19912;-91
2021/12/09 01:05:02;;;;;;;;;;;9.90;59.30;;;;;;6220886;23;19908;-90
2021/12/09 01:07:28;;;;;;;;;;;9.80;59.30;;;;;;6194381;23;19923;-92
2021/12/09 01:09:55;;;;;;;;;;;9.90;59.30;;;;;;6220475;23;19904;-90
2021/12/09 01:12:20;;;;;;;;;;;9.90;59.30;;;;;;6194179;23;19928;-91
2021/12/09 01:14:46;;;;;;;;;;;9.90;59.40;;;;;;6220571;23;19915;-91
2021/12/09 01:17:11;;;;;;;;;;;9.90;59.40;;;;;;6191803;23;20351;-90
2021/12/09 01:19:38;;;;;;;;;;;9.90;59.50;;;;;;6193789;23;19908;-91
2021/12/09 01:22:03;;;;;;;;;;;9.90;59.60;;;;;;6220311;23;19904;-91
2021/12/09 01:24:29;;;;;;;;;;;9.90;59.50;;;;;;6220956;23;19934;-91
2021/12/09 01:26:57;;;;;;;;;;;9.90;59.40;;;;;;6219067;23;20240;-91
2021/12/09 01:29:31;;;;;;;;;;;9.90;59.40;;;;;;6194261;23;19920;-91
2021/12/09 01:32:02;;;;;;;;;;;9.90;59.50;;;;;;6221142;23;20332;-91
2021/12/09 01:34:28;;;;;;;;;;;9.90;59.60;;;;;;6195636;23;20500;-90
2021/12/09 01:36:54;;;;;;;;;;;10.00;59.70;;;;;;6195534;23;19931;-91
2021/12/09 01:39:20;;;;;;;;;;;10.00;59.70;;;;;;6195686;23;19916;-91
2021/12/09 01:41:46;;;;;;;;;;;10.00;59.70;;;;;;6195902;23;19946;-90
2021/12/09 01:44:12;;;;;;;;;;;10.00;59.70;;;;;;6195941;23;19916;-91
2021/12/09 01:46:37;;;;;;;;;;;10.00;59.70;;;;;;6196628;23;19908;-90
2021/12/09 01:49:03;;;;;;;;;;;10.10;59.70;;;;;;6196193;23;19916;-91
2021/12/09 01:51:29;;;;;;;;;;;10.10;59.70;;;;;;6225105;23;19987;-91
2021/12/09 01:53:54;;;;;;;;;;;10.10;59.60;;;;;;6197853;23;19916;-91
2021/12/09 01:56:21;;;;;;;;;;;10.10;59.60;;;;;;6201352;23;19914;-90
2021/12/09 01:58:51;;;;;;;;;;;10.10;59.60;;;;;;6195889;23;19939;-90
2021/12/09 02:01:17;;;;;;;;;;;10.10;59.60;;;;;;6194196;23;20272;-91
2021/12/09 02:03:43;;;;;;;;;;;10.10;59.60;;;;;;6193782;23;19927;-90
2021/12/09 02:06:09;;;;;;;;;;;10.10;59.60;;;;;;6193767;23;19904;-91
2021/12/09 02:08:34;;;;;;;;;;;10.20;59.60;;;;;;6193797;23;20523;-91
2021/12/09 02:11:00;;;;;;;;;;;10.20;59.70;;;;;;6220713;23;19978;-91
2021/12/09 02:13:25;;;;;;;;;;;10.20;59.60;;;;;;6195168;23;19938;-90
2021/12/09 02:15:54;;;;;;;;;;;10.20;59.60;;;;;;6196289;23;20367;-91
2021/12/09 02:18:21;;;;;;;;;;;10.20;59.60;;;;;;6193896;23;20279;-91
2021/12/09 02:20:46;;;;;;;;;;;10.20;59.60;;;;;;6193485;23;19903;-91
2021/12/09 02:23:16;;;;;;;;;;;10.20;59.60;;;;;;6193026;23;20384;-90
2021/12/09 02:25:44;;;;;;;;;;;10.20;59.60;;;;;;6192667;23;19911;-91
2021/12/09 02:28:11;;;;;;;;;;;10.20;59.60;;;;;;6192838;23;20351;-91
2021/12/09 02:30:37;;;;;;;;;;;10.30;59.50;;;;;;6192432;23;19915;-90
2021/12/09 02:33:02;;;;;;;;;;;10.20;59.40;;;;;;6219524;23;20252;-93
2021/12/09 02:35:28;;;;;;;;;;;10.20;59.40;;;;;;6219634;23;19919;-91
2021/12/09 02:37:53;;;;;;;;;;;10.20;59.50;;;;;;6193669;23;19943;-91
2021/12/09 02:40:19;;;;;;;;;;;10.20;59.50;;;;;;6193063;23;19914;-91
2021/12/09 02:42:46;;;;;;;;;;;10.20;59.50;;;;;;6193909;23;20289;-89
2021/12/09 02:45:12;;;;;;;;;;;10.20;59.50;;;;;;6192597;23;20292;-91
2021/12/09 02:47:38;;;;;;;;;;;10.20;59.50;;;;;;6220121;23;20057;-91
2021/12/09 02:50:04;;;;;;;;;;;10.30;59.60;;;;;;6219729;23;19932;-91
2021/12/09 02:52:29;;;;;;;;;;;10.30;59.50;;;;;;6220362;23;19916;-91
2021/12/09 02:54:57;;;;;;;;;;;10.20;59.50;;;;;;6193588;23;19935;-90
2021/12/09 02:57:23;;;;;;;;;;;10.30;59.50;;;;;;6193914;23;20242;-91
2021/12/09 02:59:48;;;;;;;;;;;10.30;59.50;;;;;;6195037;23;19904;-90
2021/12/09 03:02:14;;;;;;;;;;;10.20;59.50;;;;;;6193565;23;19908;-90
2021/12/09 03:04:42;;;;;;;;;;;10.30;59.60;;;;;;6193683;23;19912;-90
2021/12/09 03:07:11;;;;;;;;;;;10.30;59.60;;;;;;6220578;23;19908;-90
2021/12/09 03:09:37;;;;;;;;;;;10.20;59.50;;;;;;6194155;23;19908;-91
2021/12/09 03:12:04;;;;;;;;;;;10.30;59.50;;;;;;6195150;23;19908;-90
2021/12/09 03:14:31;;;;;;;;;;;10.30;59.60;;;;;;6221267;23;19915;-91
2021/12/09 03:16:56;;;;;;;;;;;10.30;59.60;;;;;;6195076;23;19908;-93
2021/12/09 03:19:22;;;;;;;;;;;10.30;59.70;;;;;;6220289;23;19911;-91
2021/12/09 03:21:48;;;;;;;;;;;10.30;59.70;;;;;;6220388;23;19989;-90
2021/12/09 03:24:14;;;;;;;;;;;10.30;59.70;;;;;;6194214;23;19939;-91
2021/12/09 03:26:46;;;;;;;;;;;10.30;59.60;;;;;;6219737;23;19990;-91
2021/12/09 03:29:13;;;;;;;;;;;10.30;59.60;;;;;;6193775;23;19900;-91
2021/12/09 03:31:39;;;;;;;;;;;10.30;59.60;;;;;;6194002;23;19947;-91
2021/12/09 03:34:06;;;;;;;;;;;10.30;59.50;;;;;;6193796;23;19970;-91
2021/12/09 03:36:31;;;;;;;;;;;10.30;59.40;;;;;;6220110;23;19908;-92
2021/12/09 03:38:58;;;;;;;;;;;10.30;59.40;;;;;;6195056;23;20042;-90
2021/12/09 03:41:23;;;;;;;;;;;10.30;59.50;;;;;;6220932;23;20344;-90
2021/12/09 03:43:49;;;;;;;;;;;10.20;59.50;;;;;;6222314;23;19916;-91
2021/12/09 03:46:14;;;;;;;;;;;10.30;59.50;;;;;;6219868;23;19915;-92
2021/12/09 03:48:40;;;;;;;;;;;10.20;59.50;;;;;;6221266;23;19912;-91
2021/12/09 03:51:05;;;;;;;;;;;10.30;59.50;;;;;;6197886;23;20223;-90
2021/12/09 03:53:31;;;;;;;;;;;10.30;59.50;;;;;;6221741;23;19919;-90
2021/12/09 03:55:56;;;;;;;;;;;10.30;59.50;;;;;;6197064;23;19992;-91
2021/12/09 03:58:22;;;;;;;;;;;10.30;59.50;;;;;;6195994;23;19920;-91
2021/12/09 04:00:48;;;;;;;;;;;10.30;59.50;;;;;;6222488;23;19904;-90
2021/12/09 04:03:16;;;;;;;;;;;10.30;59.60;;;;;;6194578;23;20017;-90
2021/12/09 04:05:41;;;;;;;;;;;10.30;59.60;;;;;;6193749;23;19908;-90
2021/12/09 04:08:07;;;;;;;;;;;10.20;59.60;;;;;;6193081;23;20013;-90
2021/12/09 04:10:32;;;;;;;;;;;10.20;59.50;;;;;;6193798;23;19908;-90
2021/12/09 04:12:58;;;;;;;;;;;10.10;59.30;;;;;;6218799;23;20205;-90
2021/12/09 04:15:24;;;;;;;;;;;10.00;59.00;;;;;;6194265;23;20327;-90
2021/12/09 04:17:50;;;;;;;;;;;9.90;58.80;;;;;;6220541;23;19919;-91
2021/12/09 04:20:15;;;;;;;;;;;9.80;58.60;;;;;;6218927;23;19974;-92
2021/12/09 04:22:48;;;;;;;;;;;9.80;58.40;;;;;;6218835;23;19916;-91
2021/12/09 04:25:14;;;;;;;;;;;9.70;58.10;;;;;;6219789;23;19982;-91
2021/12/09 04:27:39;;;;;;;;;;;9.50;57.90;;;;;;6193717;23;19916;-90
2021/12/09 04:30:05;;;;;;;;;;;9.40;57.70;;;;;;6193124;23;19915;-90
2021/12/09 04:32:30;;;;;;;;;;;9.30;57.70;;;;;;6191279;23;19919;-91
2021/12/09 04:34:57;;;;;;;;;;;9.20;57.60;;;;;;6218694;23;20404;-90
2021/12/09 04:37:22;;;;;;;;;;;9.10;57.60;;;;;;6191366;23;20011;-90
2021/12/09 04:39:48;;;;;;;;;;;8.90;57.60;;;;;;6217971;23;19916;-91
2021/12/09 04:42:13;;;;;;;;;;;8.80;57.70;;;;;;6191756;23;19911;-90
2021/12/09 04:44:39;;;;;;;;;;;8.70;57.60;;;;;;6191712;23;20236;-91
2021/12/09 04:47:04;;;;;;;;;;;8.70;57.70;;;;;;6217865;23;19974;-91
2021/12/09 04:49:30;;;;;;;;;;;8.60;57.60;;;;;;6191489;23;19911;-90
2021/12/09 04:51:57;;;;;;;;;;;8.50;57.50;;;;;;6218503;23;19908;-91
2021/12/09 04:54:23;;;;;;;;;;;8.40;57.50;;;;;;6192341;23;19919;-90
2021/12/09 04:56:49;;;;;;;;;;;8.30;57.70;;;;;;6217976;23;19994;-90
2021/12/09 04:59:14;;;;;;;;;;;8.30;58.10;;;;;;6192766;23;19915;-90
2021/12/09 05:01:44;;;;;;;;;;;8.30;58.50;;;;;;6192497;23;19959;-91
2021/12/09 05:04:10;;;;;;;;;;;8.40;58.90;;;;;;6192833;23;19908;-91
2021/12/09 05:06:35;;;;;;;;;;;8.40;59.10;;;;;;6192959;23;19916;-89
2021/12/09 05:09:08;;;;;;;;;;;8.40;59.10;;;;;;6193158;23;19914;-91
2021/12/09 05:14:03;;;;;;;;;;;8.30;59.00;;;;;;6218890;23;20256;-90
2021/12/09 05:16:28;;;;;;;;;;;8.30;58.90;;;;;;6193636;23;19915;-90
2021/12/09 05:18:58;;;;;;;;;;;8.20;58.90;;;;;;6219028;23;19912;-91
2021/12/09 05:21:36;;;;;;;;;;;8.20;58.90;;;;;;6192216;23;20030;-90
2021/12/09 05:24:02;;;;;;;;;;;8.10;58.70;;;;;;6193866;23;19912;-90
2021/12/09 05:26:33;;;;;;;;;;;8.10;58.50;;;;;;6193754;23;19918;-90
2021/12/09 05:28:58;;;;;;;;;;;8.00;58.20;;;;;;6192904;23;20000;-90
2021/12/09 05:34:09;;;;;;;;;;;7.80;58.10;;;;;;6220004;23;20351;-90
2021/12/09 05:36:36;;;;;;;;;;;7.80;58.30;;;;;;6193278;23;19904;-89
2021/12/09 05:39:02;;;;;;;;;;;7.70;58.50;;;;;;6193215;23;19919;-91
2021/12/09 05:41:28;;;;;;;;;;;7.70;58.50;;;;;;6192733;23;19903;-91
2021/12/09 05:43:56;;;;;;;;;;;7.50;58.30;;;;;;6217186;23;19943;-91
2021/12/09 05:46:23;;;;;;;;;;;7.50;58.00;;;;;;6193870;23;19907;-91
2021/12/09 05:48:49;;;;;;;;;;;7.40;57.90;;;;;;6196196;23;19916;-91
2021/12/09 05:51:15;;;;;;;;;;;7.30;57.80;;;;;;6195344;23;20242;-90
2021/12/09 05:53:40;;;;;;;;;;;7.20;57.60;;;;;;6193227;23;19920;-91
2021/12/09 05:56:06;;;;;;;;;;;7.20;57.60;;;;;;6196455;23;19939;-90
2021/12/09 05:58:31;;;;;;;;;;;7.10;57.70;;;;;;6194865;23;19978;-91
2021/12/09 06:00:57;;;;;;;;;;;7.10;58.10;;;;;;6194759;23;19915;-90
2021/12/09 06:03:22;;;;;;;;;;;7.10;58.20;;;;;;6223004;23;19916;-90
2021/12/09 06:05:51;;;;;;;;;;;7.00;57.70;;;;;;6220793;23;20267;-90
2021/12/09 06:08:17;;;;;;;;;;;6.90;57.40;;;;;;6221300;23;19916;-90
2021/12/09 06:10:43;;;;;;;;;;;6.90;57.10;;;;;;6221857;23;19930;-90
2021/12/09 06:13:08;;;;;;;;;;;6.80;56.90;;;;;;6222507;23;19912;-89
2021/12/09 06:15:34;;;;;;;;;;;6.70;56.80;;;;;;6194814;23;19970;-91
2021/12/09 06:18:00;;;;;;;;;;;6.60;56.80;;;;;;6194212;23;19912;-90
2021/12/09 06:20:25;;;;;;;;;;;6.60;56.80;;;;;;6195566;23;20560;-91
2021/12/09 06:22:51;;;;;;;;;;;6.50;56.70;;;;;;6194939;23;19943;-90
2021/12/09 06:25:18;;;;;;;;;;;6.40;56.80;;;;;;6218384;23;19907;-89
2021/12/09 06:27:45;;;;;;;;;;;6.30;56.90;;;;;;6218707;23;20011;-90
2021/12/09 06:30:11;;;;;;;;;;;6.30;57.00;;;;;;6193228;23;19907;-91
2021/12/09 06:32:36;;;;;;;;;;;6.20;57.20;;;;;;6217708;23;20245;-89
2021/12/09 06:35:03;;;;;;;;;;;6.10;57.40;;;;;;6222029;23;19912;-90
2021/12/09 06:37:28;;;;;;;;;;;6.10;57.40;;;;;;6196002;23;19935;-90
2021/12/09 06:39:54;;;;;;;;;;;6.10;57.40;;;;;;6195520;23;20216;-90
2021/12/09 06:42:19;;;;;;;;;;;6.00;57.40;;;;;;6228090;23;19955;-90
2021/12/09 06:44:45;;;;;;;;;;;6.00;57.70;;;;;;6194405;23;19915;-90
2021/12/09 06:47:10;;;;;;;;;;;6.00;57.80;;;;;;6196277;23;19916;-90
2021/12/09 06:49:36;;;;;;;;;;;5.90;57.90;;;;;;6223377;23;19915;-91
2021/12/09 06:52:02;;;;;;;;;;;5.90;57.90;;;;;;6221722;23;19915;-90
2021/12/09 06:54:27;;;;;;;;;;;5.90;57.90;;;;;;6220146;23;19920;-90
2021/12/09 06:56:53;;;;;;;;;;;5.90;58.00;;;;;;6219579;23;19966;-90
2021/12/09 06:59:21;;;;;;;;;;;5.90;58.00;;;;;;6219143;23;20232;-90
2021/12/09 07:01:46;;;;;;;;;;;5.90;58.00;;;;;;6218065;23;19928;-91
2021/12/09 07:04:19;;;;;;;;;;;5.90;58.00;;;;;;6191942;23;19912;-90
2021/12/09 07:06:47;;;;;;;;;;;5.90;58.10;;;;;;6218806;23;19915;-90
2021/12/09 07:09:17;;;;;;;;;;;5.90;58.20;;;;;;6191494;23;19999;-90
2021/12/09 07:11:47;;;;;;;;;;;5.90;58.20;;;;;;6217375;23;19918;-90
2021/12/09 07:14:13;;;;;;;;;;;5.90;58.30;;;;;;6192349;23;19927;-91
2021/12/09 07:16:38;;;;;;;;;;;5.90;58.30;;;;;;6218910;23;19912;-91
2021/12/09 07:19:04;;;;;;;;;;;5.90;58.40;;;;;;6192594;23;19908;-90
2021/12/09 07:21:29;;;;;;;;;;;5.90;58.60;;;;;;6192166;23;19919;-90
2021/12/09 07:24:03;;;;;;;;;;;6.00;58.90;;;;;;6218623;23;19912;-90
2021/12/09 07:26:30;;;;;;;;;;;6.00;59.00;;;;;;6192716;23;19956;-90
2021/12/09 07:28:55;;;;;;;;;;;6.20;59.20;;;;;;6214354;23;19951;-90
2021/12/09 07:31:23;;;;;;;;;;;6.20;59.40;;;;;;6249131;23;19915;-90
2021/12/09 07:33:48;;;;;;;;;;;6.30;59.60;;;;;;6249315;23;19921;-90
2021/12/09 07:36:14;;;;;;;;;;;6.40;59.70;;;;;;6248892;23;19986;-90
2021/12/09 07:38:41;;;;;;;;;;;6.60;59.80;;;;;;6222775;23;19915;-90
2021/12/09 07:41:07;;;;;;;;;;;6.70;60.00;;;;;;6223904;23;19908;-91
2021/12/09 07:43:32;;;;;;;;;;;6.80;60.10;;;;;;6250201;23;20414;-90
2021/12/09 07:45:58;;;;;;;;;;;6.90;60.10;;;;;;6223112;23;19967;-91
2021/12/09 07:48:24;;;;;;;;;;;7.00;60.20;;;;;;6222445;23;19922;-90
2021/12/09 07:50:50;;;;;;;;;;;7.10;60.20;;;;;;6222459;23;19991;-90
2021/12/09 07:53:17;;;;;;;;;;;7.20;60.20;;;;;;6248167;23;19914;-91
2021/12/09 07:55:43;;;;;;;;;;;7.30;60.20;;;;;;6222319;23;20355;-91
2021/12/09 07:58:09;;;;;;;;;;;7.40;60.20;;;;;;6223636;23;19896;-91
2021/12/09 08:00:35;;;;;;;;;;;7.50;60.20;;;;;;6223845;23;19915;-91
2021/12/09 08:03:01;;;;;;;;;;;7.50;60.20;;;;;;6222161;23;19918;-91
2021/12/09 08:05:28;;;;;;;;;;;7.60;60.20;;;;;;6221723;23;19911;-91
2021/12/09 08:07:54;;;;;;;;;;;7.70;60.20;;;;;;6221791;23;19908;-91
2021/12/09 08:10:22;;;;;;;;;;;7.70;60.10;;;;;;6223777;23;19946;-91
2021/12/09 08:12:47;;;;;;;;;;;7.70;60.10;;;;;;6224090;23;20378;-91
2021/12/09 08:15:13;;;;;;;;;;;7.70;60.10;;;;;;6222989;23;19922;-91
2021/12/09 08:20:06;;;;;;;;;;;7.80;60.20;;;;;;6250471;23;19911;-92
2021/12/09 08:22:32;;;;;;;;;;;7.70;60.20;;;;;;6222163;23;19950;-91
2021/12/09 08:24:58;;;;;;;;;;;7.80;60.20;;;;;;6248892;23;19986;-92
2021/12/09 08:27:24;;;;;;;;;;;7.80;60.30;;;;;;6219220;23;19908;-92
2021/12/09 08:29:50;;;;;;;;;;;7.90;61.00;;;;;;6168260;23;19920;-91
2021/12/09 08:32:15;;;;;;;;;;;8.00;61.90;;;;;;6191955;23;19915;-91
2021/12/09 08:34:40;;;;;;;;;;;8.30;62.60;;;;;;6191305;23;20007;-91
2021/12/09 08:37:11;;;;;;;;;;;8.70;63.00;;;;;;6190996;23;19907;-91
2021/12/09 08:39:36;;;;;;;;;;;9.00;63.30;;;;;;6218208;23;19911;-90
2021/12/09 08:42:02;;;;;;;;;;;9.30;63.50;;;;;;6219088;23;19948;-92
2021/12/09 08:44:27;;;;;;;;;;;9.60;63.30;;;;;;6218526;23;20336;-91
2021/12/09 08:46:53;;;;;;;;;;;9.80;63.10;;;;;;6192143;23;19954;-91
2021/12/09 08:49:18;;;;;;;;;;;10.10;62.80;;;;;;6191996;23;20573;-92
2021/12/09 08:51:44;;;;;;;;;;;10.30;62.30;;;;;;6167558;23;19912;-91
2021/12/09 08:54:10;;;;;;;;;;;10.50;62.20;;;;;;6219465;23;19919;-91
2021/12/09 08:56:36;;;;;;;;;;;10.70;62.00;;;;;;6191053;23;19942;-91
2021/12/09 08:59:04;;;;;;;;;;;10.80;61.60;;;;;;6192324;23;19962;-92
2021/12/09 09:01:29;;;;;;;;;;;10.90;61.20;;;;;;6219157;23;19908;-92
2021/12/09 09:03:55;;;;;;;;;;;11.00;60.90;;;;;;6219548;23;19993;-92
2021/12/09 09:06:20;;;;;;;;;;;11.10;61.00;;;;;;6217674;23;19916;-92
2021/12/09 09:08:46;;;;;;;;;;;11.20;61.20;;;;;;6192970;23;19912;-91
2021/12/09 09:11:11;;;;;;;;;;;11.30;61.50;;;;;;6217370;23;20284;-91
2021/12/09 09:13:37;;;;;;;;;;;11.40;61.30;;;;;;6190989;23;19931;-91
2021/12/09 09:16:03;;;;;;;;;;;11.50;61.00;;;;;;6218989;23;19990;-91
2021/12/09 09:18:28;;;;;;;;;;;11.50;60.60;;;;;;6193469;23;19912;-91
2021/12/09 09:20:54;;;;;;;;;;;11.40;60.40;;;;;;6194497;23;20224;-91
2021/12/09 09:23:20;;;;;;;;;;;11.50;60.60;;;;;;6193828;23;19912;-90
2021/12/09 09:25:46;;;;;;;;;;;11.50;61.00;;;;;;6194948;23;19966;-89
2021/12/09 09:28:11;;;;;;;;;;;11.60;61.10;;;;;;6194383;23;19916;-91
2021/12/09 09:30:39;;;;;;;;;;;11.70;61.10;;;;;;6222334;23;19911;-90
2021/12/09 09:33:07;;;;;;;;;;;11.80;61.20;;;;;;6194106;23;19965;-91
2021/12/09 09:35:34;;;;;;;;;;;11.90;61.20;;;;;;6222109;23;19956;-91
2021/12/09 09:37:59;;;;;;;;;;;12.10;61.40;;;;;;6193712;23;19920;-90
2021/12/09 09:40:29;;;;;;;;;;;12.20;61.30;;;;;;6218683;23;19950;-91
2021/12/09 09:43:01;;;;;;;;;;;12.20;60.70;;;;;;6194524;23;19916;-90
2021/12/09 09:45:26;;;;;;;;;;;12.30;60.80;;;;;;6170393;23;20604;-91
2021/12/09 09:47:53;;;;;;;;;;;12.30;60.50;;;;;;6193069;23;19923;-91
2021/12/09 09:50:18;;;;;;;;;;;12.30;60.70;;;;;;6193615;23;19900;-91
2021/12/09 09:52:44;;;;;;;;;;;12.40;61.00;;;;;;6219777;23;19939;-91
2021/12/09 09:55:13;;;;;;;;;;;12.60;61.80;;;;;;6192987;23;19908;-91
2021/12/09 09:57:39;;;;;;;;;;;12.80;62.20;;;;;;6192486;23;19991;-92
2021/12/09 10:00:06;;;;;;;;;;;13.10;62.50;;;;;;6220101;23;19904;-91
2021/12/09 10:02:32;;;;;;;;;;;13.30;61.90;;;;;;6220442;23;19951;-92
2021/12/09 10:05:01;;;;;;;;;;;13.50;61.80;;;;;;6218945;23;19904;-91
2021/12/09 10:07:32;;;;;;;;;;;13.60;61.30;;;;;;6192781;23;19912;-92
2021/12/09 10:09:58;;;;;;;;;;;13.80;61.10;;;;;;6169603;23;19912;-90
2021/12/09 10:12:23;;;;;;;;;;;13.80;60.90;;;;;;6194197;23;19924;-90
2021/12/09 10:14:53;;;;;;;;;;;13.90;59.80;;;;;;6194322;23;19915;-91
2021/12/09 10:17:20;;;;;;;;;;;13.90;59.60;;;;;;6220865;23;20384;-90
2021/12/09 10:19:54;;;;;;;;;;;14.00;59.70;;;;;;6194869;23;19954;-91
2021/12/09 10:22:21;;;;;;;;;;;14.10;59.50;;;;;;6193532;23;19904;-90
2021/12/09 10:24:47;;;;;;;;;;;14.20;60.00;;;;;;6193386;23;19912;-91
2021/12/09 10:27:28;;;;;;;;;;;14.40;60.40;;;;;;6192785;23;19908;-91
2021/12/09 10:30:12;;;;;;;;;;;14.60;60.70;;;;;;6193561;23;20229;-91
2021/12/09 10:32:39;;;;;;;;;;;14.80;60.30;;;;;;6192971;23;19907;-91
2021/12/09 10:35:07;;;;;;;;;;;15.00;60.00;;;;;;6194307;23;19920;-92
2021/12/09 10:37:33;;;;;;;;;;;15.20;60.10;;;;;;6193305;23;19912;-92
2021/12/09 10:40:01;;;;;;;;;;;15.40;59.70;;;;;;6219165;23;19923;-92
2021/12/09 10:42:26;;;;;;;;;;;15.60;59.20;;;;;;6192290;23;19904;-91
2021/12/09 10:44:56;;;;;;;;;;;15.70;58.40;;;;;;6220341;23;19938;-91
2021/12/09 10:47:37;;;;;;;;;;;15.80;57.90;;;;;;6192346;23;19946;-91
2021/12/09 10:50:18;;;;;;;;;;;15.90;56.80;;;;;;6193340;23;19916;-92
2021/12/09 10:52:48;;;;;;;;;;;16.00;57.10;;;;;;6193352;23;19915;-91
2021/12/09 10:55:23;;;;;;;;;;;16.10;56.70;;;;;;6192840;23;19965;-92
2021/12/09 10:57:53;;;;;;;;;;;16.10;56.20;;;;;;6167035;23;19938;-91
2021/12/09 11:00:20;;;;;;;;;;;16.10;56.80;;;;;;6192005;23;19908;-92
2021/12/09 11:02:57;;;;;;;;;;;16.10;55.10;;;;;;6192223;23;19923;-92
2021/12/09 11:05:22;;;;;;;;;;;16.20;55.90;;;;;;6191792;23;19927;-91
2021/12/09 11:07:48;;;;;;;;;;;16.20;56.40;;;;;;6218450;23;19909;-90
2021/12/09 11:10:18;;;;;;;;;;;16.20;52.80;;;;;;6193783;23;19931;-90
2021/12/09 11:12:48;;;;;;;;;;;15.90;52.90;;;;;;6191410;23;19915;-90
2021/12/09 11:15:15;;;;;;;;;;;15.80;53.20;;;;;;6218779;23;20244;-91
2021/12/09 11:17:42;;;;;;;;;;;15.70;54.50;;;;;;6191946;23;20270;-91
2021/12/09 11:20:08;;;;;;;;;;;15.60;54.00;;;;;;6192365;23;19912;-91
2021/12/09 11:22:36;;;;;;;;;;;15.50;54.10;;;;;;6193240;23;19959;-91
2021/12/09 11:25:05;;;;;;;;;;;15.30;54.20;;;;;;6218415;23;20260;-91
2021/12/09 11:27:30;;;;;;;;;;;15.20;54.50;;;;;;6191979;23;19919;-90
2021/12/09 11:30:08;;;;;;;;;;;15.20;54.70;;;;;;6192089;23;20237;-91
2021/12/09 11:35:15;;;;;;;;;;;15.20;53.70;;;;;;6220131;23;19920;-91
2021/12/09 11:37:50;;;;;;;;;;;15.10;53.40;;;;;;6192478;23;19907;-91
2021/12/09 11:40:23;;;;;;;;;;;14.90;52.80;;;;;;6190896;23;19916;-91
2021/12/09 11:42:54;;;;;;;;;;;14.70;53.50;;;;;;6216990;23;19908;-91
2021/12/09 11:45:25;;;;;;;;;;;14.50;53.40;;;;;;6191041;23;19920;-90
2021/12/09 11:47:53;;;;;;;;;;;14.30;53.80;;;;;;6192099;23;19904;-89
2021/12/09 11:50:29;;;;;;;;;;;14.20;54.60;;;;;;6192732;23;19923;-90
2021/12/09 11:52:56;;;;;;;;;;;14.10;55.10;;;;;;6195935;23;19934;-90
2021/12/09 11:55:27;;;;;;;;;;;14.10;55.20;;;;;;6169311;23;19931;-90
2021/12/09 11:58:00;;;;;;;;;;;14.00;54.50;;;;;;6221944;23;19904;-90
2021/12/09 12:12:22;;;;;;;;;;;14.00;55.80;;;;;;6222140;23;19911;-90
2021/12/09 12:14:51;;;;;;;;;;;14.00;56.00;;;;;;6222479;23;20228;-90
2021/12/09 12:17:33;;;;;;;;;;;14.00;55.40;;;;;;6195606;23;19958;-91
2021/12/09 12:20:33;;;;;;;;;;;14.00;55.10;;;;;;6195164;23;20380;-90
2021/12/09 12:25:37;;;;;;;;;;;14.00;54.80;;;;;;6220917;23;19920;-91
2021/12/09 12:28:54;;;;;;;;;;;14.10;55.00;;;;;;6126631;23;19963;-90
2021/12/09 12:40:32;;;;;;;;;;;14.10;54.90;;;;;;6039331;23;20084;-91
2021/12/09 12:43:03;;;;;;;;;;;14.10;54.90;;;;;;6104492;23;19959;-91
2021/12/09 12:50:34;;;;;;;;;;;14.10;55.10;;;;;;6129455;23;19935;-90
2021/12/09 12:53:18;;;;;;;;;;;14.20;54.60;;;;;;6127469;23;20278;-91
2021/12/09 12:56:03;;;;;;;;;;;14.10;53.90;;;;;;6127527;23;19913;-91
2021/12/09 12:58:29;;;;;;;;;;;14.20;54.30;;;;;;6141181;23;20240;-91
2021/12/09 13:00:55;;;;;;;;;;;14.20;54.20;;;;;;6218339;23;19964;-90
2021/12/09 13:03:27;;;;;;;;;;;14.20;54.60;;;;;;6219547;23;20583;-90
2021/12/09 13:06:35;;;;;;;;;;;14.20;54.30;;;;;;6190530;23;20295;-90
2021/12/09 13:11:39;;;;;;;;;;;14.10;53.50;;;;;;6218799;23;19941;-89
2021/12/09 13:14:07;;;;;;;;;;;14.00;53.50;;;;;;6191634;23;20078;-91
2021/12/09 13:19:12;;;;;;;;;;;14.00;53.30;;;;;;6193162;23;19912;-90
2021/12/09 13:21:55;;;;;;;;;;;13.90;53.90;;;;;;6192088;23;19986;-90
2021/12/09 13:24:21;;;;;;;;;;;13.80;54.10;;;;;;6196028;23;19908;-90
2021/12/09 13:26:59;;;;;;;;;;;13.80;54.20;;;;;;6217914;23;19978;-90
2021/12/09 13:29:54;;;;;;;;;;;13.80;54.20;;;;;;6219429;23;19927;-89
2021/12/09 13:36:13;;;;;;;;;;;13.70;54.40;;;;;;6218387;23;20075;-91
2021/12/09 13:46:27;;;;;;;;;;;13.40;53.70;;;;;;6218555;23;19983;-91
2021/12/09 13:49:35;;;;;;;;;;;13.30;53.60;;;;;;6218857;23;19914;-90
2021/12/09 13:54:29;;;;;;;;;;;13.30;53.90;;;;;;6192191;23;19943;-90
2021/12/09 13:56:55;;;;;;;;;;;13.20;54.60;;;;;;6193068;23;20236;-90
2021/12/09 13:59:22;;;;;;;;;;;13.20;54.70;;;;;;6192013;23;19916;-90
2021/12/09 14:01:49;;;;;;;;;;;13.20;54.80;;;;;;6191327;23;19958;-90
2021/12/09 14:04:19;;;;;;;;;;;13.20;54.60;;;;;;6192290;23;19915;-89
2021/12/09 14:06:47;;;;;;;;;;;13.20;54.70;;;;;;6192688;23;20375;-90
2021/12/09 14:09:13;;;;;;;;;;;13.10;54.70;;;;;;6193738;23;19951;-89
2021/12/09 14:11:45;;;;;;;;;;;13.10;54.90;;;;;;6192362;23;20284;-91
2021/12/09 14:14:16;;;;;;;;;;;13.10;54.90;;;;;;6193920;23;19896;-92
2021/12/09 14:21:33;;;;;;;;;;;13.00;55.20;;;;;;6218911;23;19912;-91
2021/12/09 14:24:22;;;;;;;;;;;13.00;55.10;;;;;;6193697;23;19982;-90
2021/12/09 14:26:50;;;;;;;;;;;13.00;54.60;;;;;;6218860;23;19926;-91
2021/12/09 14:29:18;;;;;;;;;;;12.90;54.70;;;;;;6219611;23;20590;-92
2021/12/09 14:31:48;;;;;;;;;;;12.90;55.00;;;;;;6167910;23;19966;-90
2021/12/09 14:34:15;;;;;;;;;;;12.90;54.80;;;;;;6219061;23;19939;-91
2021/12/09 14:36:40;;;;;;;;;;;12.80;54.70;;;;;;6194492;23;19973;-90
2021/12/09 14:39:08;;;;;;;;;;;12.80;54.70;;;;;;6196519;23;19904;-89
2021/12/09 14:41:35;;;;;;;;;;;12.80;54.90;;;;;;6194674;23;19916;-91
2021/12/09 14:44:01;;;;;;;;;;;12.80;54.80;;;;;;6195053;23;19904;-91
2021/12/09 14:46:31;;;;;;;;;;;12.70;54.70;;;;;;6221188;23;19927;-90
2021/12/09 14:48:56;;;;;;;;;;;12.70;55.00;;;;;;6194493;23;19904;-92
2021/12/09 14:51:25;;;;;;;;;;;12.70;54.80;;;;;;6195296;23;19988;-90
2021/12/09 14:53:59;;;;;;;;;;;12.60;54.80;;;;;;6193196;23;19962;-91
2021/12/09 14:56:25;;;;;;;;;;;12.60;53.60;;;;;;6219842;23;19912;-91
2021/12/09 14:58:51;;;;;;;;;;;12.60;54.30;;;;;;6193748;23;19958;-91
2021/12/09 15:01:21;;;;;;;;;;;12.50;53.50;;;;;;6193314;23;20397;-91
2021/12/09 15:03:57;;;;;;;;;;;12.40;54.00;;;;;;6193815;23;19983;-91
2021/12/09 15:06:26;;;;;;;;;;;12.40;53.50;;;;;;6221170;23;19931;-91
2021/12/09 15:08:57;;;;;;;;;;;12.30;53.40;;;;;;6170120;23;19915;-91
2021/12/09 15:11:22;;;;;;;;;;;12.20;53.50;;;;;;6221948;23;19916;-90
2021/12/09 15:13:49;;;;;;;;;;;12.20;53.80;;;;;;6194101;23;19908;-90
2021/12/09 15:16:19;;;;;;;;;;;12.20;53.40;;;;;;6195027;23;19912;-91
2021/12/09 15:18:45;;;;;;;;;;;12.10;53.40;;;;;;6193806;23;19954;-91
2021/12/09 15:21:20;;;;;;;;;;;12.10;54.10;;;;;;6193091;23;19944;-90
2021/12/09 15:23:52;;;;;;;;;;;12.10;54.30;;;;;;6218376;23;19979;-90
2021/12/09 15:26:20;;;;;;;;;;;12.10;54.00;;;;;;6192528;23;19981;-91
2021/12/09 15:28:47;;;;;;;;;;;12.10;54.00;;;;;;6193730;23;19966;-92
2021/12/09 15:31:20;;;;;;;;;;;12.00;53.40;;;;;;6192824;23;19912;-91